NCAR-RAP Real-Time Weather Data

Output produced by METARs form (14 October 2019  22:34 UTC)
found at http://weather.rap.ucar.edu/surface/
 
KMDT 142156Z 00000KT 10SM FEW050 18/09 A2994 RMK AO2 SLP140 T01830094
KMDT 142056Z VRB05KT 10SM FEW065 22/04 A2993 RMK AO2 SLP136 T02220044 56009
KMDT 141956Z 28006KT 10SM FEW065 22/04 A2993 RMK AO2 SLP137 T02220044